Aidablu — IBWX — position and weather

sailwx.info

Track history (hours):
 
Tides and Currents Weather Stations Pressure Air Temp Water Temp Dewpoint Dewpoint Depression Visibility Wind Speed Wind Dir Waves Ship Positions

Aidablu

Last reported at 2014-Jul-31 13:32 UTC. Time now 2014-Jul-31 13:41 UTC.
Position N 38°08' E 013°22'.

Length 252 m; draft 7.3 m.

Type: Ship. MMSI: 247282500.

Date/timePositionNaut miles runAvg speedWind from/ knotsBaromVisibWave heightAir tempDewpointWater temp
2014-Jul-31 13:32N 38°08' E 013°22'0 0.0
2014-Jul-31 12:31N 38°08' E 013°22'0 0.0
2014-Jul-31 11:31N 38°08' E 013°22'0 0.0
2014-Jul-31 10:31N 38°08' E 013°22'0 0.0
2014-Jul-31 09:33N 38°08' E 013°22'0 0.0
2014-Jul-31 08:33N 38°08' E 013°22'0 0.0
2014-Jul-31 07:32N 38°08' E 013°22'0 0.0
2014-Jul-31 06:33N 38°08' E 013°22'6 6.1
2014-Jul-31 05:33N 38°14' E 013°23'7 7.2
2014-Jul-31 04:33N 38°17' E 013°15'6 6.4
2014-Jul-31 03:34N 38°17' E 013°07'1312.4
2014-Jul-31 02:32N 38°16' E 012°51'420 8.6
2014-Jul-29 01:31N 39°01' E 003°56'1414.5
2014-Jul-29 00:33N 39°05' E 003°39'1414.5
2014-Jul-28 23:33N 39°09' E 003°21'1414.3
2014-Jul-28 22:33N 39°13' E 003°04'1414.1
2014-Jul-28 21:33N 39°19' E 002°47'1313.1
2014-Jul-28 20:33N 39°31' E 002°40'3 2.5
2014-Jul-28 19:31N 39°33' E 002°38'0 0.0
2014-Jul-28 18:33N 39°33' E 002°38'0 0.0
2014-Jul-28 17:33N 39°33' E 002°38'0 0.0
2014-Jul-28 16:29N 39°33' E 002°38'0 0.0
2014-Jul-28 15:32N 39°33' E 002°38'0 0.0
2014-Jul-28 14:31N 39°33' E 002°38'0 0.0
2014-Jul-28 13:31N 39°33' E 002°38'0 0.0
2014-Jul-28 12:33N 39°33' E 002°38'0 0.0
2014-Jul-28 11:33N 39°33' E 002°38'0 0.0
2014-Jul-28 10:33N 39°33' E 002°38'0 0.0
2014-Jul-28 09:32N 39°33' E 002°38'0 0.0
2014-Jul-28 08:29N 39°33' E 002°38'0 0.0
2014-Jul-28 07:31N 39°33' E 002°38'0 0.0
2014-Jul-28 06:31N 39°33' E 002°38'0 0.0
2014-Jul-28 05:34N 39°33' E 002°38'0 0.0
2014-Jul-28 04:33N 39°33' E 002°38'0 0.0
2014-Jul-28 03:33N 39°33' E 002°38'0 0.0
2014-Jul-28 02:33N 39°33' E 002°38'8 7.5
2014-Jul-28 01:33N 39°26' E 002°33'1312.8
2014-Jul-28 00:33N 39°32' E 002°18'1212.0
2014-Jul-27 23:32N 39°44' E 002°14'1312.9
2014-Jul-27 22:33N 39°56' E 002°13'1313.3
2014-Jul-27 21:33N 40°09' E 002°13'1312.7
2014-Jul-27 20:33N 40°22' E 002°13'1413.5
2014-Jul-27 19:33N 40°36' E 002°12'1313.1
2014-Jul-27 18:33N 40°49' E 002°12'1312.8
2014-Jul-27 17:33N 41°02' E 002°11'20 1.7
2014-Jul-27 05:33N 41°21' E 002°11'3 2.7
2014-Jul-27 04:32N 41°19' E 002°10'1211.7
2014-Jul-27 03:28N 41°18' E 002°27'1213.0
2014-Jul-27 02:33N 41°19' E 002°43'1212.3
2014-Jul-27 01:33N 41°21' E 002°59'8 7.6
2014-Jul-27 00:33N 41°22' E 003°09'7 7.0
2014-Jul-26 23:33N 41°22' E 003°18'7 6.8
2014-Jul-26 22:30N 41°23' E 003°28'6 6.5
2014-Jul-26 21:33N 41°24' E 003°36'6 6.2
2014-Jul-26 20:33N 41°25' E 003°44'6 5.6
2014-Jul-26 19:34N 41°25' E 003°51'5 4.8
2014-Jul-26 18:27N 41°26' E 003°58'4 4.9
2014-Jul-26 17:32N 41°26' E 004°04'6 5.4
2014-Jul-26 16:21N 41°27' E 004°13'7 6.0
2014-Jul-26 15:09N 41°28' E 004°22'4 7.3
2014-Jul-26 14:33N 41°28' E 004°28'8 7.5
2014-Jul-26 13:33N 41°29' E 004°38'16 7.1
2014-Jul-26 11:19N 41°31' E 004°59'15 6.7
2014-Jul-26 09:03N 41°33' E 005°20'4 6.8
2014-Jul-26 08:28N 41°33' E 005°25'6 6.1
2014-Jul-26 07:25N 41°34' E 005°33'5 6.0
2014-Jul-26 06:33N 41°34' E 005°40'6 6.2
2014-Jul-26 05:33N 41°35' E 005°49'7 6.0
2014-Jul-26 04:25N 41°36' E 005°58'6 6.4
2014-Jul-26 03:26N 41°37' E 006°06'8 7.3
2014-Jul-26 02:23N 41°38' E 006°16'1213.4
2014-Jul-26 01:31N 41°39' E 006°32'1513.5
2014-Jul-26 00:26N 41°40' E 006°51'1213.6
2014-Jul-25 23:32N 41°42' E 007°07'1413.5
2014-Jul-25 22:29N 41°43' E 007°26'1213.3
2014-Jul-25 21:33N 41°45' E 007°43'2713.4
2014-Jul-25 19:33N 41°48' E 008°18'105 4.5
2014-Jul-24 20:33N 43°14' E 009°39'1313.3
2014-Jul-24 19:33N 43°19' E 009°56'1413.6
2014-Jul-24 18:34N 43°28' E 010°10'8 7.6
2014-Jul-24 17:33N 43°33' E 010°17'1 1.2
2014-Jul-24 16:31N 43°34' E 010°18'0 0.0
2014-Jul-24 15:31N 43°34' E 010°18'0 0.0
2014-Jul-24 14:33N 43°34' E 010°18'0 0.0
2014-Jul-24 13:33N 43°34' E 010°18'0 0.0
2014-Jul-24 12:32N 43°34' E 010°18'0 0.0
2014-Jul-24 11:32N 43°34' E 010°18'0 0.0
2014-Jul-24 10:31N 43°34' E 010°18'0 0.0
2014-Jul-24 09:31N 43°34' E 010°18'0 0.0
2014-Jul-24 08:31N 43°34' E 010°18'0 0.0
2014-Jul-24 07:33N 43°34' E 010°18'0 0.0
2014-Jul-24 06:33N 43°34' E 010°18'0 0.0
2014-Jul-24 05:32N 43°34' E 010°18'3 3.3
2014-Jul-24 04:33N 43°32' E 010°16'1413.7
2014-Jul-24 03:33N 43°19' E 010°10'1413.8
2014-Jul-24 02:33N 43°05' E 010°06'1313.5
2014-Jul-24 01:33N 42°52' E 010°03'1211.7
2014-Jul-24 00:33N 42°41' E 010°07'1413.2
2014-Jul-23 23:30N 42°32' E 010°22'1313.1
2014-Jul-23 22:33N 42°24' E 010°35'1313.3
2014-Jul-23 21:33N 42°16' E 010°49'1513.0
2014-Jul-23 20:25N 42°08' E 011°06'135 5.6
2014-Jul-22 20:34N 40°50' E 013°32'1614.4
2014-Jul-22 19:28N 40°41' E 013°48'1213.5
2014-Jul-22 18:34N 40°40' E 014°05'13 0.9
2014-Jul-22 04:33N 40°48' E 014°17'1313.2
2014-Jul-22 03:33N 40°36' E 014°10'1413.7
2014-Jul-22 02:33N 40°23' E 014°05'6113.6
2014-Jul-21 22:04N 39°24' E 013°47'3613.4
2014-Jul-21 19:24N 38°49' E 013°37'1213.5
2014-Jul-21 18:32N 38°37' E 013°34'1313.5
2014-Jul-21 17:34N 38°25' E 013°30'1413.7
2014-Jul-21 16:33N 38°11' E 013°26'5 4.7
2014-Jul-21 15:32N 38°08' E 013°22'0 0.0
2014-Jul-21 14:31N 38°08' E 013°22'  
Track history (hours):
 
Tides and Currents Weather Stations Pressure Air Temp Water Temp Dewpoint Dewpoint Depression Visibility Wind Speed Wind Dir Waves Ship Positions

Aidablu

Last reported at 2014-Jul-31 13:32 UTC. Time now 2014-Jul-31 13:41 UTC.
Position N 38°08' E 013°22'.

Length 252 m; draft 7.3 m.

Type: Ship. MMSI: 247282500.

Date/timePositionNaut miles runAvg speedWind from/ knotsBaromVisibWave heightAir tempDewpointWater temp
2014-Jul-31 13:32N 38°08' E 013°22'0 0.0
2014-Jul-31 12:31N 38°08' E 013°22'0 0.0
2014-Jul-31 11:31N 38°08' E 013°22'0 0.0
2014-Jul-31 10:31N 38°08' E 013°22'0 0.0
2014-Jul-31 09:33N 38°08' E 013°22'0 0.0
2014-Jul-31 08:33N 38°08' E 013°22'0 0.0
2014-Jul-31 07:32N 38°08' E 013°22'0 0.0
2014-Jul-31 06:33N 38°08' E 013°22'6 6.1
2014-Jul-31 05:33N 38°14' E 013°23'7 7.2
2014-Jul-31 04:33N 38°17' E 013°15'6 6.4
2014-Jul-31 03:34N 38°17' E 013°07'1312.4
2014-Jul-31 02:32N 38°16' E 012°51'420 8.6
2014-Jul-29 01:31N 39°01' E 003°56'1414.5
2014-Jul-29 00:33N 39°05' E 003°39'1414.5
2014-Jul-28 23:33N 39°09' E 003°21'1414.3
2014-Jul-28 22:33N 39°13' E 003°04'1414.1
2014-Jul-28 21:33N 39°19' E 002°47'1313.1
2014-Jul-28 20:33N 39°31' E 002°40'3 2.5
2014-Jul-28 19:31N 39°33' E 002°38'0 0.0
2014-Jul-28 18:33N 39°33' E 002°38'0 0.0
2014-Jul-28 17:33N 39°33' E 002°38'0 0.0
2014-Jul-28 16:29N 39°33' E 002°38'0 0.0
2014-Jul-28 15:32N 39°33' E 002°38'0 0.0
2014-Jul-28 14:31N 39°33' E 002°38'0 0.0
2014-Jul-28 13:31N 39°33' E 002°38'0 0.0
2014-Jul-28 12:33N 39°33' E 002°38'0 0.0
2014-Jul-28 11:33N 39°33' E 002°38'0 0.0
2014-Jul-28 10:33N 39°33' E 002°38'0 0.0
2014-Jul-28 09:32N 39°33' E 002°38'0 0.0
2014-Jul-28 08:29N 39°33' E 002°38'0 0.0
2014-Jul-28 07:31N 39°33' E 002°38'0 0.0
2014-Jul-28 06:31N 39°33' E 002°38'0 0.0
2014-Jul-28 05:34N 39°33' E 002°38'0 0.0
2014-Jul-28 04:33N 39°33' E 002°38'0 0.0
2014-Jul-28 03:33N 39°33' E 002°38'0 0.0
2014-Jul-28 02:33N 39°33' E 002°38'8 7.5
2014-Jul-28 01:33N 39°26' E 002°33'1312.8
2014-Jul-28 00:33N 39°32' E 002°18'1212.0
2014-Jul-27 23:32N 39°44' E 002°14'1312.9
2014-Jul-27 22:33N 39°56' E 002°13'1313.3
2014-Jul-27 21:33N 40°09' E 002°13'1312.7
2014-Jul-27 20:33N 40°22' E 002°13'1413.5
2014-Jul-27 19:33N 40°36' E 002°12'1313.1
2014-Jul-27 18:33N 40°49' E 002°12'1312.8
2014-Jul-27 17:33N 41°02' E 002°11'20 1.7
2014-Jul-27 05:33N 41°21' E 002°11'3 2.7
2014-Jul-27 04:32N 41°19' E 002°10'1211.7
2014-Jul-27 03:28N 41°18' E 002°27'1213.0
2014-Jul-27 02:33N 41°19' E 002°43'1212.3
2014-Jul-27 01:33N 41°21' E 002°59'8 7.6
2014-Jul-27 00:33N 41°22' E 003°09'7 7.0
2014-Jul-26 23:33N 41°22' E 003°18'7 6.8
2014-Jul-26 22:30N 41°23' E 003°28'6 6.5
2014-Jul-26 21:33N 41°24' E 003°36'6 6.2
2014-Jul-26 20:33N 41°25' E 003°44'6 5.6
2014-Jul-26 19:34N 41°25' E 003°51'5 4.8
2014-Jul-26 18:27N 41°26' E 003°58'4 4.9
2014-Jul-26 17:32N 41°26' E 004°04'6 5.4
2014-Jul-26 16:21N 41°27' E 004°13'7 6.0
2014-Jul-26 15:09N 41°28' E 004°22'4 7.3
2014-Jul-26 14:33N 41°28' E 004°28'8 7.5
2014-Jul-26 13:33N 41°29' E 004°38'16 7.1
2014-Jul-26 11:19N 41°31' E 004°59'15 6.7
2014-Jul-26 09:03N 41°33' E 005°20'4 6.8
2014-Jul-26 08:28N 41°33' E 005°25'6 6.1
2014-Jul-26 07:25N 41°34' E 005°33'5 6.0
2014-Jul-26 06:33N 41°34' E 005°40'6 6.2
2014-Jul-26 05:33N 41°35' E 005°49'7 6.0
2014-Jul-26 04:25N 41°36' E 005°58'6 6.4
2014-Jul-26 03:26N 41°37' E 006°06'8 7.3
2014-Jul-26 02:23N 41°38' E 006°16'1213.4
2014-Jul-26 01:31N 41°39' E 006°32'1513.5
2014-Jul-26 00:26N 41°40' E 006°51'1213.6
2014-Jul-25 23:32N 41°42' E 007°07'1413.5
2014-Jul-25 22:29N 41°43' E 007°26'1213.3
2014-Jul-25 21:33N 41°45' E 007°43'2713.4
2014-Jul-25 19:33N 41°48' E 008°18'105 4.5
2014-Jul-24 20:33N 43°14' E 009°39'1313.3
2014-Jul-24 19:33N 43°19' E 009°56'1413.6
2014-Jul-24 18:34N 43°28' E 010°10'8 7.6
2014-Jul-24 17:33N 43°33' E 010°17'1 1.2
2014-Jul-24 16:31N 43°34' E 010°18'0 0.0
2014-Jul-24 15:31N 43°34' E 010°18'0 0.0
2014-Jul-24 14:33N 43°34' E 010°18'0 0.0
2014-Jul-24 13:33N 43°34' E 010°18'0 0.0
2014-Jul-24 12:32N 43°34' E 010°18'0 0.0
2014-Jul-24 11:32N 43°34' E 010°18'0 0.0
2014-Jul-24 10:31N 43°34' E 010°18'0 0.0
2014-Jul-24 09:31N 43°34' E 010°18'0 0.0
2014-Jul-24 08:31N 43°34' E 010°18'0 0.0
2014-Jul-24 07:33N 43°34' E 010°18'0 0.0
2014-Jul-24 06:33N 43°34' E 010°18'0 0.0
2014-Jul-24 05:32N 43°34' E 010°18'3 3.3
2014-Jul-24 04:33N 43°32' E 010°16'1413.7
2014-Jul-24 03:33N 43°19' E 010°10'1413.8
2014-Jul-24 02:33N 43°05' E 010°06'1313.5
2014-Jul-24 01:33N 42°52' E 010°03'1211.7
2014-Jul-24 00:33N 42°41' E 010°07'1413.2
2014-Jul-23 23:30N 42°32' E 010°22'1313.1
2014-Jul-23 22:33N 42°24' E 010°35'1313.3
2014-Jul-23 21:33N 42°16' E 010°49'1513.0
2014-Jul-23 20:25N 42°08' E 011°06'135 5.6
2014-Jul-22 20:34N 40°50' E 013°32'1614.4
2014-Jul-22 19:28N 40°41' E 013°48'1213.5
2014-Jul-22 18:34N 40°40' E 014°05'13 0.9
2014-Jul-22 04:33N 40°48' E 014°17'1313.2
2014-Jul-22 03:33N 40°36' E 014°10'1413.7
2014-Jul-22 02:33N 40°23' E 014°05'6113.6
2014-Jul-21 22:04N 39°24' E 013°47'3613.4
2014-Jul-21 19:24N 38°49' E 013°37'1213.5
2014-Jul-21 18:32N 38°37' E 013°34'1313.5
2014-Jul-21 17:34N 38°25' E 013°30'1413.7
2014-Jul-21 16:33N 38°11' E 013°26'5 4.7
2014-Jul-21 15:32N 38°08' E 013°22'0 0.0
2014-Jul-21 14:31N 38°08' E 013°22'  

Dump ship's entire track history